sensor_id;sensor_type;location;lat;lon;timestamp;P1;durP1;ratioP1;P2;durP2;ratioP2
45368;SDS011;51342;55.250;37.668;2023-05-07T00:04:02;8.67;;;5.63;;
45368;SDS011;51342;55.250;37.668;2023-05-07T00:06:34;8.27;;;4.87;;
45368;SDS011;51342;55.250;37.668;2023-05-07T00:09:06;9.03;;;5.40;;
45368;SDS011;51342;55.250;37.668;2023-05-07T00:11:38;9.37;;;5.10;;
45368;SDS011;51342;55.250;37.668;2023-05-07T00:14:10;10.27;;;5.90;;
45368;SDS011;51342;55.250;37.668;2023-05-07T00:16:42;10.33;;;5.13;;
45368;SDS011;51342;55.250;37.668;2023-05-07T00:19:13;9.53;;;5.73;;
45368;SDS011;51342;55.250;37.668;2023-05-07T00:21:44;7.77;;;5.23;;
45368;SDS011;51342;55.250;37.668;2023-05-07T00:24:16;8.40;;;5.77;;
45368;SDS011;51342;55.250;37.668;2023-05-07T00:26:47;10.13;;;5.13;;
45368;SDS011;51342;55.250;37.668;2023-05-07T00:29:18;8.70;;;5.40;;
45368;SDS011;51342;55.250;37.668;2023-05-07T00:31:50;9.77;;;5.60;;
45368;SDS011;51342;55.250;37.668;2023-05-07T00:34:24;8.13;;;4.90;;
45368;SDS011;51342;55.250;37.668;2023-05-07T00:36:56;7.83;;;4.70;;
45368;SDS011;51342;55.250;37.668;2023-05-07T00:39:27;10.53;;;4.90;;
45368;SDS011;51342;55.250;37.668;2023-05-07T00:41:59;8.30;;;5.70;;
45368;SDS011;51342;55.250;37.668;2023-05-07T00:44:31;9.00;;;4.57;;
45368;SDS011;51342;55.250;37.668;2023-05-07T00:47:03;7.83;;;5.33;;
45368;SDS011;51342;55.250;37.668;2023-05-07T00:49:39;7.87;;;5.47;;
45368;SDS011;51342;55.250;37.668;2023-05-07T00:52:14;7.72;;;4.95;;
45368;SDS011;51342;55.250;37.668;2023-05-07T00:54:47;8.17;;;5.00;;
45368;SDS011;51342;55.250;37.668;2023-05-07T00:57:18;8.50;;;5.27;;
45368;SDS011;51342;55.250;37.668;2023-05-07T00:59:52;9.23;;;5.20;;
45368;SDS011;51342;55.250;37.668;2023-05-07T01:02:23;9.00;;;5.03;;
45368;SDS011;51342;55.250;37.668;2023-05-07T01:04:55;7.17;;;5.00;;
45368;SDS011;51342;55.250;37.668;2023-05-07T01:07:27;8.53;;;5.70;;
45368;SDS011;51342;55.250;37.668;2023-05-07T01:10:00;7.93;;;5.10;;
45368;SDS011;51342;55.250;37.668;2023-05-07T01:12:33;8.13;;;5.20;;
45368;SDS011;51342;55.250;37.668;2023-05-07T01:15:07;7.73;;;5.13;;
45368;SDS011;51342;55.250;37.668;2023-05-07T01:17:40;8.77;;;4.93;;
45368;SDS011;51342;55.250;37.668;2023-05-07T01:20:19;8.60;;;5.43;;
45368;SDS011;51342;55.250;37.668;2023-05-07T01:22:52;8.23;;;4.83;;
45368;SDS011;51342;55.250;37.668;2023-05-07T01:25:24;8.13;;;5.53;;
45368;SDS011;51342;55.250;37.668;2023-05-07T01:27:59;10.00;;;5.30;;
45368;SDS011;51342;55.250;37.668;2023-05-07T01:30:34;10.37;;;5.47;;
45368;SDS011;51342;55.250;37.668;2023-05-07T01:33:12;8.87;;;4.73;;
45368;SDS011;51342;55.250;37.668;2023-05-07T01:35:47;9.53;;;5.10;;
45368;SDS011;51342;55.250;37.668;2023-05-07T01:38:21;8.23;;;5.23;;
45368;SDS011;51342;55.250;37.668;2023-05-07T01:40:54;9.63;;;5.23;;
45368;SDS011;51342;55.250;37.668;2023-05-07T01:43:26;9.63;;;5.03;;
45368;SDS011;51342;55.250;37.668;2023-05-07T01:46:01;9.13;;;5.00;;
45368;SDS011;51342;55.250;37.668;2023-05-07T01:48:33;9.27;;;5.30;;
45368;SDS011;51342;55.250;37.668;2023-05-07T01:51:06;8.97;;;5.43;;
45368;SDS011;51342;55.250;37.668;2023-05-07T01:53:39;9.40;;;5.63;;
45368;SDS011;51342;55.250;37.668;2023-05-07T01:56:11;12.73;;;6.37;;
45368;SDS011;51342;55.250;37.668;2023-05-07T01:58:45;9.57;;;5.67;;
45368;SDS011;51342;55.250;37.668;2023-05-07T02:01:17;9.57;;;6.20;;
45368;SDS011;51342;55.250;37.668;2023-05-07T02:03:49;9.30;;;5.87;;
45368;SDS011;51342;55.250;37.668;2023-05-07T02:09:02;9.10;;;5.00;;
45368;SDS011;51342;55.250;37.668;2023-05-07T02:11:33;9.33;;;5.67;;
45368;SDS011;51342;55.250;37.668;2023-05-07T02:14:05;9.23;;;5.40;;
45368;SDS011;51342;55.250;37.668;2023-05-07T02:16:36;8.87;;;5.47;;
45368;SDS011;51342;55.250;37.668;2023-05-07T02:19:08;10.20;;;5.90;;
45368;SDS011;51342;55.250;37.668;2023-05-07T02:21:40;8.83;;;5.40;;
45368;SDS011;51342;55.250;37.668;2023-05-07T02:24:11;9.67;;;5.27;;
45368;SDS011;51342;55.250;37.668;2023-05-07T02:26:43;10.37;;;5.90;;
45368;SDS011;51342;55.250;37.668;2023-05-07T02:29:14;8.93;;;6.00;;
45368;SDS011;51342;55.250;37.668;2023-05-07T02:31:46;10.10;;;5.60;;
45368;SDS011;51342;55.250;37.668;2023-05-07T02:34:21;9.77;;;6.20;;
45368;SDS011;51342;55.250;37.668;2023-05-07T02:36:53;12.60;;;6.17;;
45368;SDS011;51342;55.250;37.668;2023-05-07T02:39:28;9.03;;;5.90;;
45368;SDS011;51342;55.250;37.668;2023-05-07T02:41:59;8.77;;;5.63;;
45368;SDS011;51342;55.250;37.668;2023-05-07T02:44:30;8.20;;;5.23;;
45368;SDS011;51342;55.250;37.668;2023-05-07T02:47:02;11.93;;;5.83;;
45368;SDS011;51342;55.250;37.668;2023-05-07T02:49:35;8.13;;;5.50;;
45368;SDS011;51342;55.250;37.668;2023-05-07T02:52:07;10.10;;;5.90;;
45368;SDS011;51342;55.250;37.668;2023-05-07T02:54:39;10.07;;;5.57;;
45368;SDS011;51342;55.250;37.668;2023-05-07T02:57:10;10.43;;;5.93;;
45368;SDS011;51342;55.250;37.668;2023-05-07T02:59:42;10.70;;;5.33;;
45368;SDS011;51342;55.250;37.668;2023-05-07T03:02:14;8.33;;;5.73;;
45368;SDS011;51342;55.250;37.668;2023-05-07T03:04:45;7.47;;;5.27;;
45368;SDS011;51342;55.250;37.668;2023-05-07T03:07:16;8.20;;;5.70;;
45368;SDS011;51342;55.250;37.668;2023-05-07T03:09:48;9.47;;;5.70;;
45368;SDS011;51342;55.250;37.668;2023-05-07T03:12:19;9.67;;;5.20;;
45368;SDS011;51342;55.250;37.668;2023-05-07T03:14:51;8.30;;;5.27;;
45368;SDS011;51342;55.250;37.668;2023-05-07T03:17:22;7.03;;;4.77;;
45368;SDS011;51342;55.250;37.668;2023-05-07T03:19:53;6.40;;;4.83;;
45368;SDS011;51342;55.250;37.668;2023-05-07T03:22:26;8.17;;;5.83;;
45368;SDS011;51342;55.250;37.668;2023-05-07T03:24:57;9.50;;;5.47;;
45368;SDS011;51342;55.250;37.668;2023-05-07T03:27:28;7.77;;;5.40;;
45368;SDS011;51342;55.250;37.668;2023-05-07T03:30:00;7.90;;;5.63;;
45368;SDS011;51342;55.250;37.668;2023-05-07T03:32:32;9.33;;;5.70;;
45368;SDS011;51342;55.250;37.668;2023-05-07T03:35:03;8.80;;;5.23;;
45368;SDS011;51342;55.250;37.668;2023-05-07T03:37:36;7.30;;;5.33;;
45368;SDS011;51342;55.250;37.668;2023-05-07T03:40:09;8.53;;;5.40;;
45368;SDS011;51342;55.250;37.668;2023-05-07T03:42:47;8.47;;;5.40;;
45368;SDS011;51342;55.250;37.668;2023-05-07T03:45:20;8.47;;;5.27;;
45368;SDS011;51342;55.250;37.668;2023-05-07T03:48:00;7.13;;;5.37;;
45368;SDS011;51342;55.250;37.668;2023-05-07T03:50:32;6.20;;;4.80;;
45368;SDS011;51342;55.250;37.668;2023-05-07T03:53:03;7.60;;;4.57;;
45368;SDS011;51342;55.250;37.668;2023-05-07T03:55:37;6.97;;;4.80;;
45368;SDS011;51342;55.250;37.668;2023-05-07T03:58:09;6.50;;;4.17;;
45368;SDS011;51342;55.250;37.668;2023-05-07T04:00:42;11.07;;;4.33;;
45368;SDS011;51342;55.250;37.668;2023-05-07T04:03:23;5.60;;;3.50;;
45368;SDS011;51342;55.250;37.668;2023-05-07T04:05:55;8.90;;;4.07;;
45368;SDS011;51342;55.250;37.668;2023-05-07T04:08:27;5.57;;;3.80;;
45368;SDS011;51342;55.250;37.668;2023-05-07T04:10:59;5.13;;;3.73;;
45368;SDS011;51342;55.250;37.668;2023-05-07T04:13:34;5.77;;;3.33;;
45368;SDS011;51342;55.250;37.668;2023-05-07T04:16:07;5.83;;;3.97;;
45368;SDS011;51342;55.250;37.668;2023-05-07T04:18:41;4.53;;;3.90;;
45368;SDS011;51342;55.250;37.668;2023-05-07T04:21:16;4.60;;;3.70;;
45368;SDS011;51342;55.250;37.668;2023-05-07T04:23:49;6.97;;;3.87;;
45368;SDS011;51342;55.250;37.668;2023-05-07T04:26:20;5.47;;;3.53;;
45368;SDS011;51342;55.250;37.668;2023-05-07T04:28:52;7.03;;;3.87;;
45368;SDS011;51342;55.250;37.668;2023-05-07T04:31:23;5.97;;;3.60;;
45368;SDS011;51342;55.250;37.668;2023-05-07T04:33:58;5.83;;;3.87;;
45368;SDS011;51342;55.250;37.668;2023-05-07T04:36:30;5.30;;;3.90;;
45368;SDS011;51342;55.250;37.668;2023-05-07T04:39:05;5.30;;;3.77;;
45368;SDS011;51342;55.250;37.668;2023-05-07T04:41:37;5.13;;;3.40;;
45368;SDS011;51342;55.250;37.668;2023-05-07T04:44:11;6.13;;;3.57;;
45368;SDS011;51342;55.250;37.668;2023-05-07T04:46:43;6.07;;;3.90;;
45368;SDS011;51342;55.250;37.668;2023-05-07T04:49:15;6.20;;;3.53;;
45368;SDS011;51342;55.250;37.668;2023-05-07T04:51:46;7.07;;;3.17;;
45368;SDS011;51342;55.250;37.668;2023-05-07T04:54:20;5.80;;;2.97;;
45368;SDS011;51342;55.250;37.668;2023-05-07T04:56:52;5.00;;;3.10;;
45368;SDS011;51342;55.250;37.668;2023-05-07T04:59:23;3.27;;;2.60;;
45368;SDS011;51342;55.250;37.668;2023-05-07T05:01:55;3.50;;;2.80;;
45368;SDS011;51342;55.250;37.668;2023-05-07T05:04:27;3.10;;;2.27;;
45368;SDS011;51342;55.250;37.668;2023-05-07T05:06:58;3.87;;;2.60;;
45368;SDS011;51342;55.250;37.668;2023-05-07T05:09:30;2.73;;;2.00;;
45368;SDS011;51342;55.250;37.668;2023-05-07T05:12:01;2.93;;;2.10;;
45368;SDS011;51342;55.250;37.668;2023-05-07T05:14:33;3.60;;;2.63;;
45368;SDS011;51342;55.250;37.668;2023-05-07T05:17:05;2.80;;;2.37;;
45368;SDS011;51342;55.250;37.668;2023-05-07T05:19:37;4.00;;;1.83;;
45368;SDS011;51342;55.250;37.668;2023-05-07T05:22:09;2.00;;;1.70;;
45368;SDS011;51342;55.250;37.668;2023-05-07T05:24:40;4.43;;;1.70;;
45368;SDS011;51342;55.250;37.668;2023-05-07T05:27:12;3.10;;;1.83;;
45368;SDS011;51342;55.250;37.668;2023-05-07T05:29:44;3.67;;;2.00;;
45368;SDS011;51342;55.250;37.668;2023-05-07T05:32:15;2.20;;;1.63;;
45368;SDS011;51342;55.250;37.668;2023-05-07T05:34:47;2.30;;;1.60;;
45368;SDS011;51342;55.250;37.668;2023-05-07T05:37:19;2.20;;;1.40;;
45368;SDS011;51342;55.250;37.668;2023-05-07T05:39:50;2.53;;;1.40;;
45368;SDS011;51342;55.250;37.668;2023-05-07T05:42:24;1.93;;;1.30;;
45368;SDS011;51342;55.250;37.668;2023-05-07T05:44:58;3.13;;;1.47;;
45368;SDS011;51342;55.250;37.668;2023-05-07T05:47:30;2.27;;;1.30;;
45368;SDS011;51342;55.250;37.668;2023-05-07T05:50:02;2.03;;;1.63;;
45368;SDS011;51342;55.250;37.668;2023-05-07T05:52:33;2.77;;;1.87;;
45368;SDS011;51342;55.250;37.668;2023-05-07T05:55:05;2.00;;;1.60;;
45368;SDS011;51342;55.250;37.668;2023-05-07T05:57:39;2.50;;;1.50;;
45368;SDS011;51342;55.250;37.668;2023-05-07T06:00:11;2.70;;;1.70;;
45368;SDS011;51342;55.250;37.668;2023-05-07T06:02:52;2.63;;;1.67;;
45368;SDS011;51342;55.250;37.668;2023-05-07T06:05:27;2.23;;;1.60;;
45368;SDS011;51342;55.250;37.668;2023-05-07T06:08:01;2.07;;;1.50;;
45368;SDS011;51342;55.250;37.668;2023-05-07T06:10:37;2.57;;;1.30;;
45368;SDS011;51342;55.250;37.668;2023-05-07T06:13:10;3.20;;;1.40;;
45368;SDS011;51342;55.250;37.668;2023-05-07T06:15:42;2.73;;;1.30;;
45368;SDS011;51342;55.250;37.668;2023-05-07T06:18:16;1.93;;;1.20;;
45368;SDS011;51342;55.250;37.668;2023-05-07T06:20:51;2.40;;;1.50;;
45368;SDS011;51342;55.250;37.668;2023-05-07T06:23:28;1.93;;;1.30;;
45368;SDS011;51342;55.250;37.668;2023-05-07T06:26:00;1.70;;;1.40;;
45368;SDS011;51342;55.250;37.668;2023-05-07T06:28:37;2.25;;;1.35;;
45368;SDS011;51342;55.250;37.668;2023-05-07T06:31:13;3.17;;;1.57;;
45368;SDS011;51342;55.250;37.668;2023-05-07T06:33:50;3.17;;;1.42;;
45368;SDS011;51342;55.250;37.668;2023-05-07T06:36:21;2.70;;;1.70;;
45368;SDS011;51342;55.250;37.668;2023-05-07T06:38:53;2.23;;;1.50;;
45368;SDS011;51342;55.250;37.668;2023-05-07T06:41:25;4.27;;;1.50;;
45368;SDS011;51342;55.250;37.668;2023-05-07T06:43:57;2.53;;;1.70;;
45368;SDS011;51342;55.250;37.668;2023-05-07T06:46:54;4.20;;;1.60;;
45368;SDS011;51342;55.250;37.668;2023-05-07T06:49:26;2.30;;;1.43;;
45368;SDS011;51342;55.250;37.668;2023-05-07T06:51:58;2.13;;;1.60;;
45368;SDS011;51342;55.250;37.668;2023-05-07T06:54:29;2.80;;;1.40;;
45368;SDS011;51342;55.250;37.668;2023-05-07T06:57:01;2.00;;;1.27;;
45368;SDS011;51342;55.250;37.668;2023-05-07T06:59:33;2.40;;;1.60;;
45368;SDS011;51342;55.250;37.668;2023-05-07T07:02:04;3.17;;;1.57;;
45368;SDS011;51342;55.250;37.668;2023-05-07T07:04:36;3.17;;;1.70;;
45368;SDS011;51342;55.250;37.668;2023-05-07T07:07:11;1.83;;;1.60;;
45368;SDS011;51342;55.250;37.668;2023-05-07T07:09:43;2.23;;;1.43;;
45368;SDS011;51342;55.250;37.668;2023-05-07T07:12:15;2.17;;;1.60;;
45368;SDS011;51342;55.250;37.668;2023-05-07T07:14:47;1.97;;;1.50;;
45368;SDS011;51342;55.250;37.668;2023-05-07T07:17:19;2.03;;;1.50;;
45368;SDS011;51342;55.250;37.668;2023-05-07T07:19:50;2.17;;;1.60;;
45368;SDS011;51342;55.250;37.668;2023-05-07T07:22:22;3.50;;;1.50;;
45368;SDS011;51342;55.250;37.668;2023-05-07T07:24:54;2.30;;;1.53;;
45368;SDS011;51342;55.250;37.668;2023-05-07T07:27:25;2.47;;;1.70;;
45368;SDS011;51342;55.250;37.668;2023-05-07T07:29:57;2.17;;;1.57;;
45368;SDS011;51342;55.250;37.668;2023-05-07T07:32:28;3.17;;;2.30;;
45368;SDS011;51342;55.250;37.668;2023-05-07T07:35:01;3.80;;;1.73;;
45368;SDS011;51342;55.250;37.668;2023-05-07T07:37:33;3.93;;;1.60;;
45368;SDS011;51342;55.250;37.668;2023-05-07T07:40:04;3.40;;;1.40;;
45368;SDS011;51342;55.250;37.668;2023-05-07T07:42:37;2.97;;;1.50;;
45368;SDS011;51342;55.250;37.668;2023-05-07T07:45:09;2.47;;;1.80;;
45368;SDS011;51342;55.250;37.668;2023-05-07T07:47:46;2.43;;;1.47;;
45368;SDS011;51342;55.250;37.668;2023-05-07T07:50:17;2.90;;;1.70;;
45368;SDS011;51342;55.250;37.668;2023-05-07T07:52:49;2.87;;;1.80;;
45368;SDS011;51342;55.250;37.668;2023-05-07T07:55:22;2.13;;;1.63;;
45368;SDS011;51342;55.250;37.668;2023-05-07T07:57:56;2.67;;;1.40;;
45368;SDS011;51342;55.250;37.668;2023-05-07T08:00:29;2.87;;;1.70;;
45368;SDS011;51342;55.250;37.668;2023-05-07T08:03:01;2.60;;;1.70;;
45368;SDS011;51342;55.250;37.668;2023-05-07T08:05:38;2.40;;;1.60;;
45368;SDS011;51342;55.250;37.668;2023-05-07T08:08:10;3.47;;;1.30;;
45368;SDS011;51342;55.250;37.668;2023-05-07T08:10:43;4.60;;;1.87;;
45368;SDS011;51342;55.250;37.668;2023-05-07T08:13:23;3.47;;;1.60;;
45368;SDS011;51342;55.250;37.668;2023-05-07T08:15:57;1.90;;;1.50;;
45368;SDS011;51342;55.250;37.668;2023-05-07T08:18:30;2.77;;;1.87;;
45368;SDS011;51342;55.250;37.668;2023-05-07T08:21:04;2.30;;;1.47;;
45368;SDS011;51342;55.250;37.668;2023-05-07T08:23:42;3.97;;;1.60;;
45368;SDS011;51342;55.250;37.668;2023-05-07T08:26:14;1.58;;;1.40;;
45368;SDS011;51342;55.250;37.668;2023-05-07T08:28:47;4.83;;;2.03;;
45368;SDS011;51342;55.250;37.668;2023-05-07T08:31:20;2.40;;;1.50;;
45368;SDS011;51342;55.250;37.668;2023-05-07T08:33:51;3.33;;;1.47;;
45368;SDS011;51342;55.250;37.668;2023-05-07T08:36:23;3.03;;;1.50;;
45368;SDS011;51342;55.250;37.668;2023-05-07T08:38:55;2.27;;;1.40;;
45368;SDS011;51342;55.250;37.668;2023-05-07T08:41:26;3.23;;;1.50;;
45368;SDS011;51342;55.250;37.668;2023-05-07T08:43:58;1.87;;;1.40;;
45368;SDS011;51342;55.250;37.668;2023-05-07T08:46:39;2.87;;;1.43;;
45368;SDS011;51342;55.250;37.668;2023-05-07T08:49:13;2.77;;;1.40;;
45368;SDS011;51342;55.250;37.668;2023-05-07T08:51:45;1.67;;;1.30;;
45368;SDS011;51342;55.250;37.668;2023-05-07T08:54:18;3.50;;;1.30;;
45368;SDS011;51342;55.250;37.668;2023-05-07T08:56:51;3.00;;;1.77;;
45368;SDS011;51342;55.250;37.668;2023-05-07T08:59:23;3.40;;;1.60;;
45368;SDS011;51342;55.250;37.668;2023-05-07T09:01:55;2.33;;;1.33;;
45368;SDS011;51342;55.250;37.668;2023-05-07T09:04:27;2.17;;;1.30;;
45368;SDS011;51342;55.250;37.668;2023-05-07T09:06:58;2.30;;;1.40;;
45368;SDS011;51342;55.250;37.668;2023-05-07T09:09:38;2.67;;;1.40;;
45368;SDS011;51342;55.250;37.668;2023-05-07T09:12:11;2.33;;;1.60;;
45368;SDS011;51342;55.250;37.668;2023-05-07T09:14:42;4.10;;;1.50;;
45368;SDS011;51342;55.250;37.668;2023-05-07T09:17:16;2.00;;;1.60;;
45368;SDS011;51342;55.250;37.668;2023-05-07T09:19:48;1.90;;;1.40;;
45368;SDS011;51342;55.250;37.668;2023-05-07T09:22:21;3.07;;;1.60;;
45368;SDS011;51342;55.250;37.668;2023-05-07T09:25:02;2.67;;;1.60;;
45368;SDS011;51342;55.250;37.668;2023-05-07T09:27:33;3.93;;;1.67;;
45368;SDS011;51342;55.250;37.668;2023-05-07T09:30:05;3.37;;;1.70;;
45368;SDS011;51342;55.250;37.668;2023-05-07T09:32:38;1.97;;;1.40;;
45368;SDS011;51342;55.250;37.668;2023-05-07T09:35:15;2.57;;;1.50;;
45368;SDS011;51342;55.250;37.668;2023-05-07T09:37:50;3.10;;;1.67;;
45368;SDS011;51342;55.250;37.668;2023-05-07T09:40:22;5.70;;;1.53;;
45368;SDS011;51342;55.250;37.668;2023-05-07T09:43:07;1.80;;;1.27;;
45368;SDS011;51342;55.250;37.668;2023-05-07T09:45:42;2.50;;;1.80;;
45368;SDS011;51342;55.250;37.668;2023-05-07T09:48:14;2.60;;;1.40;;
45368;SDS011;51342;55.250;37.668;2023-05-07T09:50:51;2.30;;;1.30;;
45368;SDS011;51342;55.250;37.668;2023-05-07T09:53:30;3.10;;;1.67;;
45368;SDS011;51342;55.250;37.668;2023-05-07T09:56:04;2.50;;;1.43;;
45368;SDS011;51342;55.250;37.668;2023-05-07T09:58:37;2.33;;;1.60;;
45368;SDS011;51342;55.250;37.668;2023-05-07T10:01:11;1.90;;;1.33;;
45368;SDS011;51342;55.250;37.668;2023-05-07T10:03:45;2.60;;;1.40;;
45368;SDS011;51342;55.250;37.668;2023-05-07T10:06:19;2.13;;;1.20;;
45368;SDS011;51342;55.250;37.668;2023-05-07T10:08:52;2.37;;;1.27;;
45368;SDS011;51342;55.250;37.668;2023-05-07T10:11:25;2.93;;;1.50;;
45368;SDS011;51342;55.250;37.668;2023-05-07T10:13:57;2.15;;;1.23;;
45368;SDS011;51342;55.250;37.668;2023-05-07T10:16:29;3.75;;;1.25;;
45368;SDS011;51342;55.250;37.668;2023-05-07T10:19:09;3.13;;;1.33;;
45368;SDS011;51342;55.250;37.668;2023-05-07T10:21:48;3.40;;;1.40;;
45368;SDS011;51342;55.250;37.668;2023-05-07T10:24:32;3.30;;;1.45;;
45368;SDS011;51342;55.250;37.668;2023-05-07T10:27:10;2.53;;;1.40;;
45368;SDS011;51342;55.250;37.668;2023-05-07T10:32:47;3.90;;;1.90;;
45368;SDS011;51342;55.250;37.668;2023-05-07T10:35:37;3.53;;;1.40;;
45368;SDS011;51342;55.250;37.668;2023-05-07T10:38:12;3.00;;;1.73;;
45368;SDS011;51342;55.250;37.668;2023-05-07T10:40:47;3.30;;;1.57;;
45368;SDS011;51342;55.250;37.668;2023-05-07T10:43:20;2.50;;;1.83;;
45368;SDS011;51342;55.250;37.668;2023-05-07T10:46:16;3.58;;;1.60;;
45368;SDS011;51342;55.250;37.668;2023-05-07T10:51:40;3.37;;;1.70;;
45368;SDS011;51342;55.250;37.668;2023-05-07T10:54:24;1.70;;;1.30;;
45368;SDS011;51342;55.250;37.668;2023-05-07T10:59:58;2.33;;;1.70;;
45368;SDS011;51342;55.250;37.668;2023-05-07T11:09:20;4.00;;;1.43;;
45368;SDS011;51342;55.250;37.668;2023-05-07T11:12:17;2.97;;;1.60;;
45368;SDS011;51342;55.250;37.668;2023-05-07T11:15:33;3.40;;;1.93;;
45368;SDS011;51342;55.250;37.668;2023-05-07T11:18:09;2.97;;;1.70;;
45368;SDS011;51342;55.250;37.668;2023-05-07T11:20:51;2.33;;;1.33;;
45368;SDS011;51342;55.250;37.668;2023-05-07T11:26:14;3.97;;;1.77;;
45368;SDS011;51342;55.250;37.668;2023-05-07T11:28:48;2.80;;;1.83;;
45368;SDS011;51342;55.250;37.668;2023-05-07T11:31:21;4.23;;;1.50;;
45368;SDS011;51342;55.250;37.668;2023-05-07T11:33:55;2.60;;;1.57;;
45368;SDS011;51342;55.250;37.668;2023-05-07T11:36:32;2.83;;;1.30;;
45368;SDS011;51342;55.250;37.668;2023-05-07T11:39:05;1.83;;;1.30;;
45368;SDS011;51342;55.250;37.668;2023-05-07T11:41:51;2.87;;;1.40;;
45368;SDS011;51342;55.250;37.668;2023-05-07T11:44:22;2.27;;;1.40;;
45368;SDS011;51342;55.250;37.668;2023-05-07T11:46:54;1.90;;;1.10;;
45368;SDS011;51342;55.250;37.668;2023-05-07T11:49:25;3.43;;;1.47;;
45368;SDS011;51342;55.250;37.668;2023-05-07T11:51:57;2.30;;;1.33;;
45368;SDS011;51342;55.250;37.668;2023-05-07T11:54:38;2.20;;;1.20;;
45368;SDS011;51342;55.250;37.668;2023-05-07T11:57:14;2.13;;;1.40;;
45368;SDS011;51342;55.250;37.668;2023-05-07T11:59:46;3.50;;;1.57;;
45368;SDS011;51342;55.250;37.668;2023-05-07T12:02:20;2.93;;;1.50;;
45368;SDS011;51342;55.250;37.668;2023-05-07T12:04:52;2.50;;;1.53;;
45368;SDS011;51342;55.250;37.668;2023-05-07T12:07:24;2.13;;;1.47;;
45368;SDS011;51342;55.250;37.668;2023-05-07T12:09:56;2.40;;;1.60;;
45368;SDS011;51342;55.250;37.668;2023-05-07T12:12:27;3.37;;;1.70;;
45368;SDS011;51342;55.250;37.668;2023-05-07T12:14:58;2.10;;;1.50;;
45368;SDS011;51342;55.250;37.668;2023-05-07T12:17:30;4.20;;;1.93;;
45368;SDS011;51342;55.250;37.668;2023-05-07T12:20:01;3.73;;;1.60;;
45368;SDS011;51342;55.250;37.668;2023-05-07T12:22:34;1.83;;;1.30;;
45368;SDS011;51342;55.250;37.668;2023-05-07T12:25:05;3.47;;;1.57;;
45368;SDS011;51342;55.250;37.668;2023-05-07T12:27:37;2.20;;;1.50;;
45368;SDS011;51342;55.250;37.668;2023-05-07T12:30:10;2.60;;;1.60;;
45368;SDS011;51342;55.250;37.668;2023-05-07T12:32:43;2.83;;;1.50;;
45368;SDS011;51342;55.250;37.668;2023-05-07T12:35:16;3.23;;;1.63;;
45368;SDS011;51342;55.250;37.668;2023-05-07T12:37:54;1.70;;;1.37;;
45368;SDS011;51342;55.250;37.668;2023-05-07T12:40:36;2.65;;;1.67;;
45368;SDS011;51342;55.250;37.668;2023-05-07T12:43:15;3.53;;;1.50;;
45368;SDS011;51342;55.250;37.668;2023-05-07T12:45:56;2.40;;;1.40;;
45368;SDS011;51342;55.250;37.668;2023-05-07T12:48:28;2.65;;;1.48;;
45368;SDS011;51342;55.250;37.668;2023-05-07T12:51:00;4.28;;;1.45;;
45368;SDS011;51342;55.250;37.668;2023-05-07T12:53:33;2.90;;;1.30;;
45368;SDS011;51342;55.250;37.668;2023-05-07T12:56:05;1.83;;;1.30;;
45368;SDS011;51342;55.250;37.668;2023-05-07T12:58:37;3.40;;;1.40;;
45368;SDS011;51342;55.250;37.668;2023-05-07T13:01:08;2.70;;;1.27;;
45368;SDS011;51342;55.250;37.668;2023-05-07T13:03:40;3.67;;;1.30;;
45368;SDS011;51342;55.250;37.668;2023-05-07T13:06:12;2.50;;;1.23;;
45368;SDS011;51342;55.250;37.668;2023-05-07T13:08:43;2.47;;;1.50;;
45368;SDS011;51342;55.250;37.668;2023-05-07T13:11:15;3.00;;;1.70;;
45368;SDS011;51342;55.250;37.668;2023-05-07T13:13:46;3.35;;;1.58;;
45368;SDS011;51342;55.250;37.668;2023-05-07T13:16:17;1.73;;;1.30;;
45368;SDS011;51342;55.250;37.668;2023-05-07T13:18:49;1.80;;;1.02;;
45368;SDS011;51342;55.250;37.668;2023-05-07T13:21:20;2.57;;;1.57;;
45368;SDS011;51342;55.250;37.668;2023-05-07T13:23:51;3.00;;;1.30;;
45368;SDS011;51342;55.250;37.668;2023-05-07T13:26:24;4.97;;;1.70;;
45368;SDS011;51342;55.250;37.668;2023-05-07T13:28:56;3.13;;;1.50;;
45368;SDS011;51342;55.250;37.668;2023-05-07T13:31:28;3.13;;;1.50;;
45368;SDS011;51342;55.250;37.668;2023-05-07T13:33:59;2.30;;;1.42;;
45368;SDS011;51342;55.250;37.668;2023-05-07T13:36:30;1.93;;;1.37;;
45368;SDS011;51342;55.250;37.668;2023-05-07T13:39:03;4.27;;;1.57;;
45368;SDS011;51342;55.250;37.668;2023-05-07T13:41:35;2.27;;;1.57;;
45368;SDS011;51342;55.250;37.668;2023-05-07T13:44:06;2.73;;;1.57;;
45368;SDS011;51342;55.250;37.668;2023-05-07T13:46:38;4.30;;;1.77;;
45368;SDS011;51342;55.250;37.668;2023-05-07T13:49:11;2.90;;;1.60;;
45368;SDS011;51342;55.250;37.668;2023-05-07T13:51:43;3.53;;;1.83;;
45368;SDS011;51342;55.250;37.668;2023-05-07T13:54:15;3.00;;;1.83;;
45368;SDS011;51342;55.250;37.668;2023-05-07T13:56:46;4.20;;;1.47;;
45368;SDS011;51342;55.250;37.668;2023-05-07T13:59:18;2.67;;;1.70;;
45368;SDS011;51342;55.250;37.668;2023-05-07T14:01:49;2.70;;;1.67;;
45368;SDS011;51342;55.250;37.668;2023-05-07T14:04:21;3.73;;;1.93;;
45368;SDS011;51342;55.250;37.668;2023-05-07T14:06:52;2.13;;;1.70;;
45368;SDS011;51342;55.250;37.668;2023-05-07T14:09:24;2.90;;;2.03;;
45368;SDS011;51342;55.250;37.668;2023-05-07T14:11:55;2.37;;;1.80;;
45368;SDS011;51342;55.250;37.668;2023-05-07T14:14:26;3.53;;;2.00;;
45368;SDS011;51342;55.250;37.668;2023-05-07T14:17:01;4.57;;;1.83;;
45368;SDS011;51342;55.250;37.668;2023-05-07T14:19:32;2.30;;;1.50;;
45368;SDS011;51342;55.250;37.668;2023-05-07T14:22:04;3.40;;;1.57;;
45368;SDS011;51342;55.250;37.668;2023-05-07T14:24:35;3.53;;;1.80;;
45368;SDS011;51342;55.250;37.668;2023-05-07T14:27:07;2.93;;;1.80;;
45368;SDS011;51342;55.250;37.668;2023-05-07T14:29:38;2.67;;;1.87;;
45368;SDS011;51342;55.250;37.668;2023-05-07T14:32:10;3.30;;;2.00;;
45368;SDS011;51342;55.250;37.668;2023-05-07T14:34:42;1.97;;;1.50;;
45368;SDS011;51342;55.250;37.668;2023-05-07T14:37:13;3.83;;;1.60;;
45368;SDS011;51342;55.250;37.668;2023-05-07T14:39:45;2.83;;;1.60;;
45368;SDS011;51342;55.250;37.668;2023-05-07T14:42:19;4.07;;;1.63;;
45368;SDS011;51342;55.250;37.668;2023-05-07T14:44:51;2.70;;;1.70;;
45368;SDS011;51342;55.250;37.668;2023-05-07T14:47:23;2.80;;;1.73;;
45368;SDS011;51342;55.250;37.668;2023-05-07T14:49:55;2.93;;;1.70;;
45368;SDS011;51342;55.250;37.668;2023-05-07T14:52:28;4.13;;;2.10;;
45368;SDS011;51342;55.250;37.668;2023-05-07T14:54:59;2.50;;;1.67;;
45368;SDS011;51342;55.250;37.668;2023-05-07T14:57:31;3.07;;;1.63;;
45368;SDS011;51342;55.250;37.668;2023-05-07T15:00:06;3.77;;;2.00;;
45368;SDS011;51342;55.250;37.668;2023-05-07T15:02:38;3.93;;;1.70;;
45368;SDS011;51342;55.250;37.668;2023-05-07T15:05:09;3.70;;;1.60;;
45368;SDS011;51342;55.250;37.668;2023-05-07T15:07:41;3.03;;;1.60;;
45368;SDS011;51342;55.250;37.668;2023-05-07T15:10:12;2.07;;;1.37;;
45368;SDS011;51342;55.250;37.668;2023-05-07T15:12:44;5.37;;;1.67;;
45368;SDS011;51342;55.250;37.668;2023-05-07T15:15:15;3.27;;;1.70;;
45368;SDS011;51342;55.250;37.668;2023-05-07T15:17:47;5.27;;;1.63;;
45368;SDS011;51342;55.250;37.668;2023-05-07T15:20:18;3.40;;;1.70;;
45368;SDS011;51342;55.250;37.668;2023-05-07T15:22:50;3.07;;;1.60;;
45368;SDS011;51342;55.250;37.668;2023-05-07T15:25:21;3.47;;;2.00;;
45368;SDS011;51342;55.250;37.668;2023-05-07T15:27:53;3.23;;;1.70;;
45368;SDS011;51342;55.250;37.668;2023-05-07T15:30:25;3.57;;;1.83;;
45368;SDS011;51342;55.250;37.668;2023-05-07T15:32:56;3.33;;;1.90;;